createdAt,value
2022-09-20T00:00:44.860Z,13.25
2022-09-20T00:03:48.264Z,13.22
2022-09-20T00:06:50.834Z,12.66
2022-09-20T00:09:54.752Z,13.14
2022-09-20T00:12:57.384Z,13.14
2022-09-20T00:15:59.974Z,13.03
2022-09-20T00:19:03.902Z,13.03
2022-09-20T00:22:06.431Z,12.97
2022-09-20T00:25:10.739Z,12.75
2022-09-20T00:28:13.279Z,13.15
2022-09-20T00:31:16.188Z,13.16
2022-09-20T00:34:36.547Z,13.16
2022-09-20T00:37:40.330Z,13.01
2022-09-20T00:40:44.849Z,13.01
2022-09-20T00:43:47.935Z,12.86
2022-09-20T00:46:50.419Z,12.98
2022-09-20T00:49:54.603Z,12.87
2022-09-20T00:52:59.013Z,12.91
2022-09-20T00:56:05.050Z,12.86
2022-09-20T00:59:10.461Z,12.80
2022-09-20T01:02:14.288Z,12.57
2022-09-20T01:05:16.921Z,12.87
2022-09-20T01:08:21.956Z,12.86
2022-09-20T01:11:26.051Z,12.66
2022-09-20T01:14:28.601Z,12.50
2022-09-20T01:17:32.463Z,12.74
2022-09-20T01:20:36.760Z,12.53
2022-09-20T01:23:48.018Z,12.71
2022-09-20T01:26:59.175Z,12.69
2022-09-20T01:30:06.890Z,12.59
2022-09-20T01:33:11.551Z,12.67
2022-09-20T01:36:14.992Z,12.38
2022-09-20T01:39:19.992Z,12.28
2022-09-20T01:42:24.055Z,12.35
2022-09-20T01:45:29.452Z,12.44
2022-09-20T01:48:34.450Z,12.37
2022-09-20T01:52:07.333Z,12.44
2022-09-20T01:55:32.071Z,12.12
2022-09-20T01:59:23.167Z,12.20
2022-09-20T02:02:57.421Z,12.10
2022-09-20T02:06:20.623Z,12.17
2022-09-20T02:09:44.601Z,11.90
2022-09-20T02:12:54.056Z,12.12
2022-09-20T02:16:12.148Z,12.11
2022-09-20T02:19:47.729Z,12.23
2022-09-20T02:22:57.384Z,12.22
2022-09-20T02:26:06.374Z,12.18
2022-09-20T02:29:17.288Z,12.00
2022-09-20T02:32:29.668Z,12.10
2022-09-20T02:35:40.160Z,12.00
2022-09-20T02:38:45.872Z,11.85
2022-09-20T02:41:53.621Z,11.76
2022-09-20T02:45:00.193Z,11.97
2022-09-20T02:48:04.644Z,11.80
2022-09-20T02:51:13.163Z,11.95
2022-09-20T02:54:19.766Z,12.09
2022-09-20T02:57:24.868Z,12.07
2022-09-20T03:00:28.783Z,11.98
2022-09-20T03:03:37.686Z,11.63
2022-09-20T03:06:44.294Z,11.91
2022-09-20T03:09:49.071Z,11.56
2022-09-20T03:12:58.418Z,11.81
2022-09-20T03:16:04.139Z,11.80
2022-09-20T03:19:12.931Z,11.80
2022-09-20T03:22:22.937Z,11.60
2022-09-20T03:25:36.910Z,11.86
2022-09-20T03:28:48.002Z,11.96
2022-09-20T03:32:00.875Z,12.03
2022-09-20T03:35:07.935Z,12.04
2022-09-20T03:38:30.389Z,12.10
2022-09-20T03:42:04.767Z,12.04
2022-09-20T03:45:28.532Z,12.17
2022-09-20T03:48:58.283Z,12.02
2022-09-20T03:52:03.419Z,11.96
2022-09-20T03:55:20.330Z,12.17
2022-09-20T03:58:32.916Z,12.18
2022-09-20T04:01:45.162Z,12.21
2022-09-20T04:04:49.266Z,12.22
2022-09-20T04:07:56.600Z,12.27
2022-09-20T04:11:03.013Z,12.15
2022-09-20T04:14:11.532Z,12.44
2022-09-20T04:17:24.371Z,12.46
2022-09-20T04:20:32.755Z,12.39
2022-09-20T04:23:40.487Z,12.53
2022-09-20T04:26:47.562Z,12.52
2022-09-20T04:29:53.479Z,12.45
2022-09-20T04:32:59.662Z,12.19
2022-09-20T04:36:24.269Z,12.46
2022-09-20T04:39:34.864Z,12.49
2022-09-20T04:43:08.955Z,12.50
2022-09-20T04:46:35.585Z,12.38
2022-09-20T04:50:12.874Z,12.51
2022-09-20T04:53:26.058Z,12.53
2022-09-20T04:56:30.393Z,12.52
2022-09-20T04:59:39.898Z,12.52
2022-09-20T05:03:09.635Z,12.46
2022-09-20T05:06:18.013Z,12.56
2022-09-20T05:09:45.801Z,12.54
2022-09-20T05:13:05.195Z,12.52
2022-09-20T05:16:13.974Z,12.58
2022-09-20T05:19:24.820Z,12.52
2022-09-20T05:22:46.932Z,12.61
2022-09-20T05:26:08.317Z,12.62
2022-09-20T05:29:14.272Z,12.60
2022-09-20T05:32:20.225Z,12.59
2022-09-20T05:35:24.233Z,12.60
2022-09-20T05:38:30.751Z,12.62
2022-09-20T05:41:37.713Z,12.59
2022-09-20T05:44:54.891Z,12.39
2022-09-20T05:48:01.734Z,12.57
2022-09-20T05:51:08.102Z,12.16
2022-09-20T05:54:26.940Z,12.44
2022-09-20T05:57:36.142Z,12.27
2022-09-20T06:00:40.634Z,12.58
2022-09-20T06:03:45.459Z,12.41
2022-09-20T06:06:52.589Z,12.37
2022-09-20T06:10:22.835Z,12.63
2022-09-20T06:13:34.597Z,12.69
2022-09-20T06:16:43.139Z,12.64
2022-09-20T06:19:47.868Z,12.72
2022-09-20T06:22:51.163Z,12.40
2022-09-20T06:25:56.054Z,13.02
2022-09-20T06:29:00.490Z,13.87
2022-09-20T06:32:03.111Z,14.65
2022-09-20T06:35:07.809Z,15.08
2022-09-20T06:38:38.827Z,14.92
2022-09-20T06:41:41.377Z,15.15
2022-09-20T06:44:43.998Z,15.20
2022-09-20T06:47:46.715Z,15.31
2022-09-20T06:50:52.180Z,15.62
2022-09-20T06:53:54.914Z,15.72
2022-09-20T06:56:57.703Z,16.08
2022-09-20T07:00:00.248Z,15.90
2022-09-20T07:03:02.817Z,16.08
2022-09-20T07:06:06.977Z,16.24
2022-09-20T07:09:10.943Z,16.52
2022-09-20T07:12:13.695Z,16.79
2022-09-20T07:15:16.506Z,17.06
2022-09-20T07:18:19.097Z,17.15
2022-09-20T07:21:23.003Z,17.20
2022-09-20T07:24:25.523Z,17.19
2022-09-20T07:27:29.510Z,17.55
2022-09-20T07:30:32.112Z,17.61
2022-09-20T07:33:34.650Z,17.49
2022-09-20T07:36:38.543Z,17.38
2022-09-20T07:39:41.722Z,17.40
2022-09-20T07:42:45.923Z,17.95
2022-09-20T07:45:54.816Z,18.12
2022-09-20T07:48:57.379Z,18.18
2022-09-20T07:52:01.275Z,18.36
2022-09-20T07:55:05.959Z,18.11
2022-09-20T07:58:08.486Z,18.61
2022-09-20T08:01:13.283Z,18.66
2022-09-20T08:04:15.951Z,18.42
2022-09-20T08:07:21.951Z,18.36
2022-09-20T08:10:26.828Z,18.14
2022-09-20T08:16:52.312Z,18.23
2022-09-20T08:19:54.879Z,17.81
2022-09-20T08:23:21.932Z,17.77
2022-09-20T08:26:24.545Z,17.60
2022-09-20T08:29:27.105Z,17.61
2022-09-20T08:32:29.687Z,17.66
2022-09-20T08:35:32.303Z,17.60
2022-09-20T08:42:00.986Z,17.94
2022-09-20T08:45:04.524Z,17.80
2022-09-20T08:48:08.233Z,17.87
2022-09-20T08:51:11.435Z,17.94
2022-09-20T08:54:15.990Z,18.20
2022-09-20T08:57:19.303Z,17.92
2022-09-20T09:00:23.547Z,17.99
2022-09-20T09:03:26.116Z,17.87
2022-09-20T09:06:28.667Z,17.88
2022-09-20T09:09:41.110Z,18.04
2022-09-20T09:12:48.792Z,17.83
2022-09-20T09:15:54.581Z,17.77
2022-09-20T09:18:57.726Z,17.94
2022-09-20T09:22:00.540Z,17.80
2022-09-20T09:25:23.952Z,18.08
2022-09-20T09:28:31.361Z,17.92
2022-09-20T09:31:34.006Z,17.55
2022-09-20T09:34:38.676Z,17.56
2022-09-20T09:37:41.547Z,17.61
2022-09-20T09:40:50.434Z,18.06
2022-09-20T09:44:00.384Z,18.25
2022-09-20T09:47:03.114Z,18.27
2022-09-20T09:50:09.894Z,18.19
2022-09-20T09:53:15.150Z,18.63
2022-09-20T09:56:27.230Z,18.17
2022-09-20T09:59:57.652Z,18.63
2022-09-20T10:03:25.230Z,18.94
2022-09-20T10:06:30.079Z,19.09
2022-09-20T10:09:46.333Z,19.45
2022-09-20T10:12:57.919Z,19.31
2022-09-20T10:16:03.739Z,19.16
2022-09-20T10:19:08.954Z,19.30
2022-09-20T10:22:13.491Z,19.26
2022-09-20T10:25:23.857Z,19.16
2022-09-20T10:28:35.799Z,18.57
2022-09-20T10:31:45.401Z,17.96
2022-09-20T10:35:17.364Z,17.62
2022-09-20T10:38:23.458Z,17.46
2022-09-20T10:41:59.088Z,17.46
2022-09-20T10:45:10.900Z,17.41
2022-09-20T10:48:18.029Z,17.20
2022-09-20T10:51:25.143Z,17.47
2022-09-20T10:54:34.839Z,17.65
2022-09-20T10:57:56.427Z,17.55
2022-09-20T11:01:02.573Z,17.32
2022-09-20T11:04:18.959Z,17.43
2022-09-20T11:07:25.323Z,17.60
2022-09-20T11:10:29.646Z,17.80
2022-09-20T11:13:34.938Z,18.36
2022-09-20T11:16:41.709Z,18.51
2022-09-20T11:19:49.391Z,18.59
2022-09-20T11:22:53.688Z,18.68
2022-09-20T11:25:57.498Z,18.20
2022-09-20T11:29:03.907Z,18.59
2022-09-20T11:32:13.871Z,19.02
2022-09-20T11:35:30.252Z,18.95
2022-09-20T11:38:36.432Z,19.27
2022-09-20T11:41:38.956Z,18.74
2022-09-20T11:44:42.251Z,19.04
2022-09-20T11:47:55.052Z,19.43
2022-09-20T11:51:19.320Z,19.90
2022-09-20T11:54:36.150Z,20.09
2022-09-20T11:57:38.703Z,20.34
2022-09-20T12:00:42.414Z,20.43
2022-09-20T12:03:46.946Z,19.96
2022-09-20T12:06:57.923Z,20.07
2022-09-20T12:10:01.326Z,19.67
2022-09-20T12:13:05.535Z,19.53
2022-09-20T12:16:09.213Z,19.10
2022-09-20T12:19:13.998Z,19.03
2022-09-20T12:22:18.053Z,19.05
2022-09-20T12:25:37.138Z,19.11
2022-09-20T12:28:40.314Z,19.15
2022-09-20T12:31:48.432Z,19.19
2022-09-20T12:34:52.619Z,19.21
2022-09-20T12:37:55.482Z,19.08
2022-09-20T12:41:02.299Z,18.90
2022-09-20T12:44:07.181Z,18.69
2022-09-20T12:47:18.240Z,18.78
2022-09-20T12:50:39.759Z,18.73
2022-09-20T12:53:42.371Z,18.83
2022-09-20T12:56:46.596Z,19.57
2022-09-20T12:59:56.050Z,19.34
2022-09-20T13:03:00.150Z,19.70
2022-09-20T13:06:26.245Z,20.11
2022-09-20T13:09:28.808Z,19.90
2022-09-20T13:12:32.127Z,19.85
2022-09-20T13:15:35.548Z,19.91
2022-09-20T13:18:38.115Z,20.40
2022-09-20T13:21:51.647Z,20.52
2022-09-20T13:24:57.769Z,20.38
2022-09-20T13:28:06.014Z,20.44
2022-09-20T13:31:24.710Z,20.09
2022-09-20T13:34:27.452Z,20.61
2022-09-20T13:37:32.292Z,20.71
2022-09-20T13:40:35.546Z,20.85
2022-09-20T13:43:38.719Z,20.56
2022-09-20T13:46:44.637Z,20.69
2022-09-20T13:49:47.187Z,20.77
2022-09-20T13:52:52.017Z,20.72
2022-09-20T13:55:55.333Z,21.08
2022-09-20T13:58:59.064Z,20.99
2022-09-20T14:02:01.727Z,21.17
2022-09-20T14:05:05.658Z,21.05
2022-09-20T14:08:12.024Z,21.25
2022-09-20T14:11:16.916Z,20.98
2022-09-20T14:14:22.251Z,20.96
2022-09-20T14:17:25.259Z,20.87
2022-09-20T14:20:27.895Z,21.06
2022-09-20T14:23:31.811Z,20.83
2022-09-20T14:26:36.126Z,20.89
2022-09-20T14:29:40.687Z,20.28
2022-09-20T14:32:45.878Z,20.62
2022-09-20T14:35:50.230Z,20.67
2022-09-20T14:38:55.524Z,20.66
2022-09-20T14:41:58.029Z,20.84
2022-09-20T14:45:00.578Z,20.90
2022-09-20T14:48:09.601Z,20.90
2022-09-20T14:51:23.018Z,20.80
2022-09-20T14:54:29.795Z,20.75
2022-09-20T14:57:32.820Z,20.73
2022-09-20T15:00:48.288Z,20.72
2022-09-20T15:03:50.970Z,20.67
2022-09-20T15:06:53.598Z,20.49
2022-09-20T15:09:57.427Z,20.54
2022-09-20T15:12:59.936Z,20.28
2022-09-20T15:16:02.847Z,20.14
2022-09-20T15:19:05.982Z,20.03
2022-09-20T15:22:09.422Z,20.13
2022-09-20T15:25:17.639Z,20.06
2022-09-20T15:28:20.342Z,19.90
2022-09-20T15:31:22.894Z,19.84
2022-09-20T15:34:25.443Z,19.60
2022-09-20T15:37:28.012Z,19.49
2022-09-20T15:40:32.457Z,19.67
2022-09-20T15:43:35.071Z,19.57
2022-09-20T15:46:37.733Z,19.13
2022-09-20T15:49:40.250Z,19.29
2022-09-20T15:52:43.828Z,19.25
2022-09-20T15:55:47.740Z,19.50
2022-09-20T15:58:51.175Z,19.22
2022-09-20T16:01:53.776Z,19.39
2022-09-20T16:04:56.413Z,19.21
2022-09-20T16:07:59.071Z,19.18
2022-09-20T16:11:03.005Z,18.69
2022-09-20T16:14:05.667Z,18.99
2022-09-20T16:17:08.190Z,18.84
2022-09-20T16:20:10.608Z,18.80
2022-09-20T16:23:14.642Z,18.81
2022-09-20T16:26:19.520Z,18.67
2022-09-20T16:29:23.401Z,18.66
2022-09-20T16:32:25.944Z,18.59
2022-09-20T16:35:28.495Z,18.53
2022-09-20T16:38:30.987Z,18.47
2022-09-20T16:41:34.880Z,18.44
2022-09-20T16:44:38.631Z,18.29
2022-09-20T16:47:41.197Z,18.33
2022-09-20T16:50:47.298Z,18.26
2022-09-20T16:53:49.980Z,18.17
2022-09-20T16:56:53.898Z,18.03
2022-09-20T16:59:56.457Z,17.99
2022-09-20T17:02:59.107Z,17.57
2022-09-20T17:06:02.951Z,17.61
2022-09-20T17:09:05.908Z,17.55
2022-09-20T17:12:10.181Z,17.72
2022-09-20T17:15:13.569Z,17.76
2022-09-20T17:18:16.115Z,17.67
2022-09-20T17:21:19.816Z,17.58
2022-09-20T17:24:23.132Z,17.12
2022-09-20T17:27:27.021Z,17.20
2022-09-20T17:30:31.079Z,17.25
2022-09-20T17:33:34.050Z,17.05
2022-09-20T17:36:39.094Z,17.23
2022-09-20T17:39:44.118Z,17.16
2022-09-20T17:42:51.217Z,16.84
2022-09-20T17:45:53.565Z,17.03
2022-09-20T17:48:56.811Z,16.81
2022-09-20T17:51:59.523Z,16.87
2022-09-20T17:55:02.185Z,16.81
2022-09-20T17:58:06.096Z,16.77
2022-09-20T18:01:12.893Z,16.73
2022-09-20T18:04:15.818Z,16.48
2022-09-20T18:07:18.303Z,16.28
2022-09-20T18:10:20.786Z,16.53
2022-09-20T18:13:25.724Z,16.48
2022-09-20T18:16:28.760Z,16.05
2022-09-20T18:19:33.712Z,16.38
2022-09-20T18:22:36.312Z,16.35
2022-09-20T18:25:52.790Z,16.17
2022-09-20T18:28:58.011Z,15.83
2022-09-20T18:32:01.244Z,15.92
2022-09-20T18:35:03.795Z,15.62
2022-09-20T18:38:07.078Z,15.52
2022-09-20T18:41:09.960Z,15.67
2022-09-20T18:44:14.622Z,15.53
2022-09-20T18:47:17.172Z,15.36
2022-09-20T18:50:20.766Z,15.18
2022-09-20T18:53:25.156Z,15.07
2022-09-20T18:56:28.690Z,14.88
2022-09-20T18:59:32.920Z,14.92
2022-09-20T19:02:42.731Z,14.69
2022-09-20T19:05:45.284Z,14.73
2022-09-20T19:08:51.105Z,14.83
2022-09-20T19:11:56.115Z,14.78
2022-09-20T19:15:06.691Z,14.73
2022-09-20T19:18:21.573Z,14.28
2022-09-20T19:21:28.908Z,14.60
2022-09-20T19:25:16.292Z,14.41
2022-09-20T19:28:19.315Z,14.36
2022-09-20T19:31:24.918Z,14.38
2022-09-20T19:34:32.165Z,14.21
2022-09-20T19:37:36.541Z,14.30
2022-09-20T19:40:44.188Z,14.24
2022-09-20T19:43:59.519Z,14.05
2022-09-20T19:47:21.895Z,14.17
2022-09-20T19:50:29.349Z,14.16
2022-09-20T19:53:32.514Z,14.12
2022-09-20T19:56:37.441Z,13.98
2022-09-20T19:59:40.474Z,13.61
2022-09-20T20:02:45.701Z,13.96
2022-09-20T20:05:51.683Z,13.75
2022-09-20T20:08:56.085Z,14.00
2022-09-20T20:12:01.797Z,14.15
2022-09-20T20:15:09.643Z,14.20
2022-09-20T20:18:19.156Z,14.25
2022-09-20T20:21:26.745Z,13.87
2022-09-20T20:24:31.562Z,14.19
2022-09-20T20:27:34.169Z,14.44
2022-09-20T20:30:37.007Z,14.31
2022-09-20T20:33:40.897Z,14.10
2022-09-20T20:36:43.651Z,13.86
2022-09-20T20:39:46.161Z,14.34
2022-09-20T20:42:48.668Z,14.20
2022-09-20T20:45:51.199Z,14.52
2022-09-20T20:48:55.076Z,14.15
2022-09-20T20:51:59.498Z,14.55
2022-09-20T20:55:02.043Z,14.11
2022-09-20T20:58:04.737Z,14.37
2022-09-20T21:01:11.942Z,14.23
2022-09-20T21:04:16.799Z,14.18
2022-09-20T21:07:19.310Z,14.04
2022-09-20T21:10:21.915Z,14.16
2022-09-20T21:13:24.421Z,14.29
2022-09-20T21:16:28.557Z,14.27
2022-09-20T21:19:32.482Z,13.88
2022-09-20T21:22:34.976Z,13.88
2022-09-20T21:25:37.514Z,14.05
2022-09-20T21:28:41.342Z,13.98
2022-09-20T21:31:44.460Z,14.02
2022-09-20T21:34:48.347Z,14.05
2022-09-20T21:37:50.867Z,13.82
2022-09-20T21:40:57.376Z,14.16
2022-09-20T21:44:00.997Z,14.06
2022-09-20T21:47:03.835Z,14.22
2022-09-20T21:50:09.278Z,14.25
2022-09-20T21:53:11.832Z,14.23
2022-09-20T21:56:15.473Z,14.20
2022-09-20T21:59:18.474Z,14.19
2022-09-20T22:02:21.006Z,14.18
2022-09-20T22:05:25.304Z,14.13
2022-09-20T22:08:27.922Z,14.08
2022-09-20T22:11:31.148Z,14.07
2022-09-20T22:14:34.956Z,14.00
2022-09-20T22:17:37.470Z,13.92
2022-09-20T22:20:41.707Z,13.96
2022-09-20T22:23:44.645Z,13.84
2022-09-20T22:26:48.055Z,13.76
2022-09-20T22:29:50.901Z,13.57
2022-09-20T22:32:53.638Z,13.42
2022-09-20T22:35:57.734Z,13.55
2022-09-20T22:39:00.520Z,13.25
2022-09-20T22:42:03.301Z,13.40
2022-09-20T22:45:07.136Z,13.39
2022-09-20T22:48:09.870Z,13.33
2022-09-20T22:51:14.643Z,13.18
2022-09-20T22:54:17.415Z,13.25
2022-09-20T22:57:20.149Z,13.26
2022-09-20T23:00:22.901Z,13.17
2022-09-20T23:03:25.694Z,13.04
2022-09-20T23:06:30.726Z,13.30
2022-09-20T23:09:33.487Z,13.34
2022-09-20T23:12:36.269Z,13.37
2022-09-20T23:15:39.041Z,13.36
2022-09-20T23:18:41.782Z,13.35
2022-09-20T23:21:45.956Z,13.28
2022-09-20T23:24:48.750Z,13.21
2022-09-20T23:27:51.493Z,13.19
2022-09-20T23:30:54.461Z,13.08
2022-09-20T23:33:58.174Z,13.20
2022-09-20T23:37:02.414Z,13.23
2022-09-20T23:40:05.771Z,13.30
2022-09-20T23:43:08.561Z,13.22
2022-09-20T23:46:11.804Z,13.40
2022-09-20T23:49:14.627Z,13.29
2022-09-20T23:52:18.746Z,13.35
2022-09-20T23:55:21.511Z,13.31
2022-09-20T23:58:24.242Z,13.28
